Time;durP1;ratioP1;P1;durP2;ratioP2;P2;SDS_P1;SDS_P2;PMS_P1;PMS_P2;Temp;Humidity;BMP_temperature;BMP_pressure;BME280_temperature;BME280_humidity;BME280_pressure;Samples;Min_cycle;Max_cycle;Signal;HPM_P1;HPM_P2
2022/09/11 00:00:51;;;;;;;45.17;27.10;;;14.90;99.90;;;;;;4993300;28;20078;-68
2022/09/11 00:03:18;;;;;;;37.08;27.30;;;14.90;99.90;;;;;;4992292;28;20042;-68
2022/09/11 00:05:44;;;;;;;38.03;26.25;;;14.90;99.90;;;;;;4991277;28;20077;-68
2022/09/11 00:08:15;;;;;;;38.33;26.90;;;15.00;99.90;;;;;;4993180;28;20521;-68
2022/09/11 00:10:42;;;;;;;36.03;26.27;;;15.10;99.90;;;;;;4975296;28;20376;-68
2022/09/11 00:13:18;;;;;;;36.75;27.73;;;15.00;99.90;;;;;;4974735;28;20095;-68
2022/09/11 00:15:44;;;;;;;38.35;27.35;;;15.00;99.90;;;;;;4993615;28;20054;-68
2022/09/11 00:18:16;;;;;;;40.65;26.83;;;15.00;99.90;;;;;;4992300;28;20104;-68
2022/09/11 00:20:48;;;;;;;34.92;27.15;;;15.20;99.90;;;;;;4970881;28;20466;-68
2022/09/11 00:23:16;;;;;;;37.25;25.67;;;15.10;99.90;;;;;;4983931;28;20057;-68
2022/09/11 00:25:42;;;;;;;;;;;15.10;99.90;;;;;;4975355;28;20050;-68
2022/09/11 00:28:12;;;;;;;31.85;24.70;;;15.00;99.90;;;;;;4969364;28;20267;-68
2022/09/11 00:30:38;;;;;;;32.83;25.27;;;15.00;99.90;;;;;;4987103;28;20528;-68
2022/09/11 00:33:03;;;;;;;36.63;26.80;;;15.00;99.90;;;;;;4968119;28;20045;-68
2022/09/11 00:35:29;;;;;;;33.15;24.50;;;15.00;99.90;;;;;;4983755;28;20050;-68
2022/09/11 00:37:55;;;;;;;35.03;25.63;;;15.00;99.90;;;;;;4953815;28;20042;-68
2022/09/11 00:40:24;;;;;;;30.50;24.23;;;15.00;99.90;;;;;;4985845;28;20038;-69
2022/09/11 00:42:54;;;;;;;35.50;24.90;;;15.00;99.90;;;;;;4990248;28;20050;-69
2022/09/11 00:45:27;;;;;;;32.97;24.65;;;15.00;99.90;;;;;;4971055;28;20471;-69
2022/09/11 00:47:57;;;;;;;35.97;24.15;;;15.00;99.90;;;;;;4974666;28;20050;-69
2022/09/11 00:50:27;;;;;;;35.83;24.42;;;15.00;99.90;;;;;;4986004;28;20053;-69
2022/09/11 00:53:04;;;;;;;32.55;24.98;;;15.00;99.90;;;;;;4992827;28;20039;-69
2022/09/11 00:55:34;;;;;;;29.88;22.75;;;14.90;99.90;;;;;;4991644;28;20042;-69
2022/09/11 00:58:11;;;;;;;27.85;21.30;;;14.90;99.90;;;;;;4985550;28;20116;-69
2022/09/11 01:00:40;;;;;;;27.60;21.45;;;14.90;99.90;;;;;;4987819;28;20065;-69
2022/09/11 01:03:05;;;;;;;28.38;20.63;;;14.90;99.90;;;;;;4984716;28;20042;-69
2022/09/11 01:05:34;;;;;;;28.52;21.25;;;14.80;99.90;;;;;;4989030;28;20398;-68
2022/09/11 01:08:02;;;;;;;28.35;22.23;;;14.80;99.90;;;;;;4974381;28;20047;-68
2022/09/11 01:11:11;;;;;;;27.83;21.48;;;14.80;99.90;;;;;;4985187;28;20093;-68
2022/09/11 01:14:26;;;;;;;31.67;23.20;;;14.70;99.90;;;;;;4988823;28;20472;-68
2022/09/11 01:17:04;;;;;;;30.58;21.70;;;14.70;99.90;;;;;;4983921;28;20050;-69
2022/09/11 01:19:48;;;;;;;33.55;21.88;;;14.70;99.90;;;;;;4991321;28;20050;-69
2022/09/11 01:22:41;;;;;;;27.73;21.42;;;14.70;99.90;;;;;;4984064;28;20062;-68
2022/09/11 01:25:14;;;;;;;28.02;20.75;;;14.70;99.90;;;;;;4976676;28;20046;-68
2022/09/11 01:27:52;;;;;;;26.58;20.35;;;14.60;99.90;;;;;;4970974;28;20118;-69
2022/09/11 01:30:21;;;;;;;28.65;22.20;;;14.60;99.90;;;;;;4986172;28;20449;-68
2022/09/11 01:33:07;;;;;;;30.20;21.75;;;14.50;99.90;;;;;;4984779;28;20050;-68
2022/09/11 01:35:40;;;;;;;28.80;19.83;;;14.50;99.90;;;;;;4969440;28;20050;-68
2022/09/11 01:38:23;;;;;;;25.63;20.95;;;14.50;99.90;;;;;;4988350;28;20053;-69
2022/09/11 01:41:03;;;;;;;30.40;21.45;;;14.60;99.90;;;;;;4987229;28;20155;-68
2022/09/11 01:43:36;;;;;;;27.98;20.75;;;14.50;99.90;;;;;;4975243;28;20042;-68
2022/09/11 01:46:06;;;;;;;27.88;22.17;;;14.50;99.90;;;;;;4982954;28;20057;-68
2022/09/11 01:48:45;;;;;;;33.72;22.88;;;14.50;99.90;;;;;;4969118;28;20395;-68
2022/09/11 01:51:20;;;;;;;26.55;21.02;;;14.60;99.90;;;;;;4989468;28;20072;-68
2022/09/11 01:53:49;;;;;;;23.25;18.33;;;14.50;99.90;;;;;;4985082;28;20057;-68
2022/09/11 01:56:21;;;;;;;25.23;20.05;;;14.40;99.90;;;;;;4981856;28;20513;-67
2022/09/11 01:58:50;;;;;;;25.58;19.83;;;14.40;99.90;;;;;;4980014;28;20043;-68
2022/09/11 02:01:21;;;;;;;26.23;19.98;;;14.40;99.90;;;;;;4981688;28;20125;-68
2022/09/11 02:04:09;;;;;;;26.95;20.13;;;14.40;99.90;;;;;;4990671;28;20046;-69
2022/09/11 02:07:01;;;;;;;26.33;19.95;;;14.40;99.90;;;;;;4981461;28;20050;-68
2022/09/11 02:09:37;;;;;;;25.98;19.98;;;14.30;99.90;;;;;;4988019;28;20046;-68
2022/09/11 02:12:06;;;;;;;22.33;17.95;;;14.30;99.90;;;;;;4971516;28;20053;-69
2022/09/11 02:14:45;;;;;;;22.90;18.90;;;14.30;99.90;;;;;;4985905;28;20041;-69
2022/09/11 02:17:47;;;;;;;23.77;19.80;;;14.30;99.90;;;;;;4990384;28;20050;-69
2022/09/11 02:20:14;;;;;;;22.20;18.85;;;14.20;99.90;;;;;;4934115;28;20512;-68
2022/09/11 02:22:39;;;;;;;25.80;20.10;;;14.20;99.90;;;;;;4991465;28;20380;-68
2022/09/11 02:25:05;;;;;;;25.73;19.45;;;14.20;99.90;;;;;;4991973;28;20049;-68
2022/09/11 02:27:32;;;;;;;27.73;19.92;;;14.20;99.90;;;;;;4959259;28;20046;-68
2022/09/11 02:29:59;;;;;;;21.48;17.45;;;14.20;99.90;;;;;;4990104;28;20054;-69
2022/09/11 02:32:26;;;;;;;23.50;17.85;;;14.10;99.90;;;;;;4993332;28;20495;-68
2022/09/11 02:34:56;;;;;;;25.33;18.48;;;14.10;99.90;;;;;;4994145;28;20494;-68
2022/09/11 02:37:50;;;;;;;25.35;18.63;;;14.20;99.90;;;;;;4992533;28;20094;-68
2022/09/11 02:40:45;;;;;;;26.27;19.58;;;14.20;99.90;;;;;;4992226;28;20125;-68
2022/09/11 02:43:50;;;;;;;34.90;21.30;;;14.20;99.90;;;;;;4992242;28;20611;-69
2022/09/11 02:46:30;;;;;;;27.13;19.63;;;14.20;99.90;;;;;;4972622;28;20054;-68
2022/09/11 02:49:22;;;;;;;25.60;19.80;;;14.20;99.90;;;;;;4961753;28;20046;-69
2022/09/11 02:51:59;;;;;;;28.33;20.30;;;14.20;99.90;;;;;;4986206;28;20496;-68
2022/09/11 02:54:25;;;;;;;23.63;17.58;;;14.20;99.90;;;;;;4993737;28;20531;-68
2022/09/11 02:57:12;;;;;;;23.90;18.80;;;14.20;99.90;;;;;;4989658;28;20103;-68
2022/09/11 02:59:44;;;;;;;33.08;20.65;;;14.20;99.90;;;;;;4971575;28;20042;-69
2022/09/11 03:02:13;;;;;;;24.67;18.40;;;14.20;99.90;;;;;;4973148;28;20487;-68
2022/09/11 03:04:39;;;;;;;27.98;18.58;;;14.10;99.90;;;;;;4976950;28;20450;-69
2022/09/11 03:07:05;;;;;;;23.40;18.48;;;14.10;99.90;;;;;;4991794;28;20046;-69
2022/09/11 03:09:32;;;;;;;26.25;18.85;;;14.10;99.90;;;;;;4990375;28;20043;-69
2022/09/11 03:11:58;;;;;;;20.88;16.73;;;14.10;99.90;;;;;;4965696;28;20054;-69
2022/09/11 03:14:23;;;;;;;25.60;18.75;;;14.10;99.90;;;;;;4992040;28;20046;-69
2022/09/11 03:16:49;;;;;;;21.48;17.27;;;14.10;99.90;;;;;;4980252;28;20133;-69
2022/09/11 03:19:15;;;;;;;22.65;17.60;;;14.00;99.90;;;;;;4961661;28;20491;-69
2022/09/11 03:21:41;;;;;;;24.20;18.88;;;14.00;99.90;;;;;;4958841;28;20050;-69
2022/09/11 03:24:08;;;;;;;24.40;16.95;;;14.10;99.90;;;;;;4993329;28;20045;-69
2022/09/11 03:26:35;;;;;;;24.35;17.95;;;14.00;99.90;;;;;;4992059;28;20046;-69
2022/09/11 03:29:01;;;;;;;23.50;17.08;;;14.00;99.90;;;;;;4989319;28;20381;-69
2022/09/11 03:31:27;;;;;;;23.33;16.88;;;14.00;99.90;;;;;;4992241;28;20070;-69
2022/09/11 03:33:53;;;;;;;27.05;17.13;;;14.00;99.90;;;;;;4988836;28;20086;-69
2022/09/11 03:36:19;;;;;;;22.75;17.70;;;13.90;99.90;;;;;;4989670;28;20475;-69
2022/09/11 03:38:46;;;;;;;22.45;16.75;;;13.90;99.90;;;;;;4993349;28;20042;-69
2022/09/11 03:41:12;;;;;;;23.90;17.87;;;13.90;99.90;;;;;;4991276;28;20161;-69
2022/09/11 03:43:38;;;;;;;24.27;16.85;;;13.90;99.90;;;;;;4990152;28;20081;-69
2022/09/11 03:46:04;;;;;;;17.77;15.60;;;13.90;99.90;;;;;;4992217;28;20097;-69
2022/09/11 03:48:30;;;;;;;26.58;17.20;;;13.90;99.90;;;;;;4974876;28;20050;-68
2022/09/11 03:50:57;;;;;;;23.20;17.73;;;13.90;99.90;;;;;;4982911;28;20038;-68
2022/09/11 03:53:24;;;;;;;17.55;15.73;;;13.90;99.90;;;;;;4987452;28;20097;-68
2022/09/11 03:55:49;;;;;;;22.15;17.55;;;13.90;99.90;;;;;;4984927;28;20070;-68
2022/09/11 03:58:17;;;;;;;20.83;16.90;;;13.80;99.90;;;;;;4980707;28;20070;-68
2022/09/11 04:00:43;;;;;;;;;;;13.80;99.90;;;;;;4988735;28;20057;-69
2022/09/11 04:03:14;;;;;;;22.90;15.52;;;13.80;99.90;;;;;;4974233;28;19925;-69
2022/09/11 04:05:42;;;;;;;20.30;14.80;;;13.80;99.90;;;;;;4991654;28;20034;-69
2022/09/11 04:08:11;;;;;;;19.30;15.52;;;13.90;99.90;;;;;;4976032;28;20085;-68
2022/09/11 04:10:37;;;;;;;21.48;15.75;;;13.80;99.90;;;;;;4991658;28;20491;-68
2022/09/11 04:13:03;;;;;;;17.30;14.98;;;13.80;99.90;;;;;;4989467;28;20085;-68
2022/09/11 04:15:31;;;;;;;20.15;15.45;;;13.80;99.90;;;;;;4990158;28;20136;-68
2022/09/11 04:17:57;;;;;;;18.70;15.60;;;13.80;99.90;;;;;;4990568;28;20051;-69
2022/09/11 04:20:23;;;;;;;19.52;15.18;;;13.80;99.90;;;;;;4991516;28;20049;-68
2022/09/11 04:22:49;;;;;;;19.00;15.40;;;13.80;99.90;;;;;;4992129;28;20034;-68
2022/09/11 04:25:15;;;;;;;22.50;15.55;;;13.80;99.90;;;;;;4989135;28;20506;-69
2022/09/11 04:27:40;;;;;;;21.25;15.88;;;13.80;99.90;;;;;;4991095;28;20092;-69
2022/09/11 04:30:07;;;;;;;18.88;15.65;;;13.80;99.90;;;;;;4989386;28;20479;-68
2022/09/11 04:32:33;;;;;;;21.88;16.73;;;13.80;99.90;;;;;;4992394;28;20177;-69
2022/09/11 04:35:00;;;;;;;22.63;16.83;;;13.80;99.90;;;;;;4962274;28;20118;-69
2022/09/11 04:37:27;;;;;;;20.55;16.10;;;13.80;99.90;;;;;;4986486;28;20405;-68
2022/09/11 04:39:53;;;;;;;17.60;15.68;;;13.80;99.90;;;;;;4988007;28;20042;-69
2022/09/11 04:42:18;;;;;;;21.15;16.38;;;13.80;99.90;;;;;;4987419;28;20049;-69
2022/09/11 04:44:45;;;;;;;21.52;16.23;;;13.80;99.90;;;;;;4990296;28;20034;-68
2022/09/11 04:47:11;;;;;;;20.45;15.38;;;13.80;99.90;;;;;;4988682;28;20061;-68
2022/09/11 04:49:37;;;;;;;19.95;15.80;;;13.80;99.90;;;;;;4981310;28;20461;-68
2022/09/11 04:52:04;;;;;;;18.40;15.73;;;13.80;99.90;;;;;;4973446;28;20454;-69
2022/09/11 04:54:32;;;;;;;23.50;16.52;;;13.80;99.90;;;;;;4988288;28;20132;-69
2022/09/11 04:57:00;;;;;;;19.65;14.60;;;13.80;99.90;;;;;;4988348;28;20050;-69
2022/09/11 04:59:26;;;;;;;18.58;15.55;;;13.80;99.90;;;;;;4970951;28;20053;-69
2022/09/11 05:01:53;;;;;;;16.98;13.15;;;13.80;99.90;;;;;;4971268;28;20046;-69
2022/09/11 05:04:19;;;;;;;17.30;14.00;;;13.80;99.90;;;;;;4990434;28;20486;-69
2022/09/11 05:06:47;;;;;;;23.73;16.40;;;13.80;99.90;;;;;;4992072;28;20049;-68
2022/09/11 05:09:14;;;;;;;18.98;13.75;;;13.80;99.90;;;;;;4989729;28;20588;-68
2022/09/11 05:11:41;;;;;;;17.83;13.48;;;13.80;99.90;;;;;;4971848;28;20045;-68
2022/09/11 05:14:07;;;;;;;17.45;13.80;;;13.90;99.90;;;;;;4971506;28;20133;-67
2022/09/11 05:16:34;;;;;;;18.10;14.45;;;13.80;99.90;;;;;;4985423;28;20522;-68
2022/09/11 05:19:03;;;;;;;16.85;14.65;;;13.80;99.90;;;;;;4978990;28;20053;-68
2022/09/11 05:21:29;;;;;;;;;;;13.80;99.90;;;;;;4991299;28;20048;-69
2022/09/11 05:23:59;;;;;;;17.08;14.23;;;13.80;99.90;;;;;;4990103;28;20000;-68
2022/09/11 05:26:34;;;;;;;18.25;14.48;;;13.80;99.90;;;;;;4989430;28;20054;-68
2022/09/11 05:29:06;;;;;;;17.08;14.80;;;13.80;99.90;;;;;;4965813;28;20499;-68
2022/09/11 05:31:32;;;;;;;16.35;14.55;;;13.90;99.90;;;;;;4979595;28;20074;-68
2022/09/11 05:33:59;;;;;;;21.80;14.35;;;13.90;99.90;;;;;;4961977;28;20042;-68
2022/09/11 05:36:26;;;;;;;15.38;13.02;;;13.90;99.90;;;;;;4989851;28;20442;-69
2022/09/11 05:38:52;;;;;;;19.00;14.15;;;13.90;99.90;;;;;;4988503;28;20043;-68
2022/09/11 05:41:18;;;;;;;20.02;14.15;;;13.90;99.90;;;;;;4968498;28;20109;-69
2022/09/11 05:43:44;;;;;;;23.15;15.10;;;13.90;99.90;;;;;;4991923;28;20630;-69
2022/09/11 05:46:16;;;;;;;19.88;14.63;;;13.90;99.90;;;;;;4985857;28;20059;-69
2022/09/11 05:48:42;;;;;;;21.45;16.27;;;14.00;99.90;;;;;;4974530;28;20085;-68
2022/09/11 05:51:19;;;;;;;17.38;14.13;;;14.00;99.90;;;;;;4989581;28;20454;-68
2022/09/11 05:53:45;;;;;;;18.45;14.38;;;14.00;99.90;;;;;;4982657;28;20031;-69
2022/09/11 05:56:19;;;;;;;18.02;14.20;;;14.00;99.90;;;;;;4992940;28;20050;-69
2022/09/11 05:58:46;;;;;;;21.13;14.18;;;14.10;99.90;;;;;;4971754;28;20462;-69
2022/09/11 06:01:17;;;;;;;17.38;15.50;;;14.00;99.90;;;;;;4992161;28;20043;-69
2022/09/11 06:03:43;;;;;;;22.50;15.95;;;14.10;99.90;;;;;;4993772;28;20431;-68
2022/09/11 06:06:11;;;;;;;19.52;14.98;;;14.10;99.90;;;;;;4970698;28;20845;-68
2022/09/11 06:08:38;;;;;;;19.30;15.18;;;14.20;99.90;;;;;;4994581;28;20058;-69
2022/09/11 06:11:06;;;;;;;19.90;13.53;;;14.10;99.90;;;;;;4960810;28;20450;-69
2022/09/11 06:13:34;;;;;;;;;;;14.40;99.90;;;;;;4991831;28;20047;-69
2022/09/11 06:16:01;;;;;;;19.35;14.15;;;14.20;99.90;;;;;;4991230;28;19922;-68
2022/09/11 06:18:27;;;;;;;18.13;14.40;;;14.40;99.90;;;;;;4995000;28;20053;-68
2022/09/11 06:21:11;;;;;;;18.90;14.60;;;14.50;99.90;;;;;;4993846;28;20442;-69
2022/09/11 06:23:38;;;;;;;17.60;13.30;;;14.60;99.90;;;;;;4987540;28;20042;-69
2022/09/11 06:26:09;;;;;;;16.60;14.38;;;14.70;99.90;;;;;;4989999;28;20143;-69
2022/09/11 06:28:36;;;;;;;15.35;13.23;;;14.90;99.90;;;;;;4974098;28;20035;-69
2022/09/11 06:31:04;;;;;;;19.10;13.48;;;15.20;99.90;;;;;;4973391;28;20083;-69
2022/09/11 06:33:38;;;;;;;18.15;13.05;;;15.40;99.90;;;;;;4994613;28;20496;-68
2022/09/11 06:36:06;;;;;;;17.90;12.60;;;15.60;99.90;;;;;;4991505;28;20062;-69
2022/09/11 06:38:32;;;;;;;15.52;12.45;;;15.70;99.90;;;;;;4994488;28;20058;-68
2022/09/11 06:41:01;;;;;;;15.93;12.52;;;15.70;99.90;;;;;;4991833;28;20074;-68
2022/09/11 06:43:27;;;;;;;14.23;12.02;;;15.80;99.90;;;;;;4989116;28;20414;-69
2022/09/11 06:45:53;;;;;;;17.13;12.63;;;15.90;99.90;;;;;;4987286;28;20042;-69
2022/09/11 06:48:19;;;;;;;15.27;13.20;;;15.90;99.90;;;;;;4991653;28;20430;-69
2022/09/11 06:50:45;;;;;;;15.38;12.50;;;16.00;99.90;;;;;;4994057;28;20038;-67
2022/09/11 06:53:12;;;;;;;11.98;10.50;;;16.30;99.90;;;;;;4979175;28;20117;-68
2022/09/11 06:55:39;;;;;;;13.63;10.77;;;16.70;99.90;;;;;;4990258;28;20038;-68
2022/09/11 06:58:05;;;;;;;14.77;10.30;;;17.10;99.90;;;;;;4992286;28;20541;-68
2022/09/11 07:00:32;;;;;;;10.80;9.70;;;17.50;99.90;;;;;;4989242;28;20290;-68
2022/09/11 07:02:58;;;;;;;10.93;8.80;;;17.80;99.90;;;;;;4987416;28;20531;-68
2022/09/11 07:05:24;;;;;;;10.90;8.57;;;18.10;99.90;;;;;;4974644;28;20121;-68
2022/09/11 07:07:57;;;;;;;13.27;8.77;;;18.30;99.90;;;;;;4983935;28;20047;-68
2022/09/11 07:10:23;;;;;;;11.18;8.50;;;18.40;99.90;;;;;;4989778;28;20046;-68
2022/09/11 07:12:51;;;;;;;10.45;8.60;;;18.40;99.90;;;;;;4992411;28;20151;-68
2022/09/11 07:15:17;;;;;;;11.23;8.50;;;18.30;99.90;;;;;;4973434;28;20129;-68
2022/09/11 07:17:42;;;;;;;10.88;7.93;;;18.50;99.90;;;;;;4991831;28;20163;-68
2022/09/11 07:20:09;;;;;;;11.43;8.00;;;18.70;99.90;;;;;;4993228;28;20050;-68
2022/09/11 07:22:35;;;;;;;11.18;8.00;;;18.80;99.90;;;;;;4994156;28;20046;-68
2022/09/11 07:25:01;;;;;;;8.95;7.60;;;18.80;99.90;;;;;;4991421;28;20050;-68
2022/09/11 07:27:30;;;;;;;9.13;7.78;;;18.60;99.90;;;;;;4983806;28;20376;-68
2022/09/11 07:29:56;;;;;;;10.90;8.10;;;18.50;99.90;;;;;;4992449;28;20042;-68
2022/09/11 07:32:22;;;;;;;9.73;7.90;;;18.50;99.90;;;;;;4989592;28;20498;-68
2022/09/11 07:34:48;;;;;;;10.13;7.93;;;18.50;99.90;;;;;;4980500;28;20046;-68
2022/09/11 07:37:14;;;;;;;9.13;7.22;;;18.60;99.90;;;;;;4994159;28;20089;-68
2022/09/11 07:39:40;;;;;;;9.55;7.10;;;18.60;99.90;;;;;;4991562;28;20406;-68
2022/09/11 07:42:06;;;;;;;11.18;7.85;;;18.70;99.90;;;;;;4988977;28;20436;-68
2022/09/11 07:44:33;;;;;;;8.23;6.53;;;18.70;99.90;;;;;;4992851;28;20047;-68
2022/09/11 07:46:59;;;;;;;10.07;7.13;;;18.80;99.90;;;;;;4970246;28;20096;-67
2022/09/11 07:49:26;;;;;;;9.73;7.32;;;18.90;99.90;;;;;;4991394;28;20053;-68
2022/09/11 07:51:53;;;;;;;8.27;6.32;;;19.00;99.90;;;;;;4972933;28;20065;-69
2022/09/11 07:54:20;;;;;;;7.72;5.15;;;19.10;99.90;;;;;;4974102;28;20593;-68
2022/09/11 07:56:46;;;;;;;8.90;5.53;;;19.10;99.90;;;;;;4985712;28;20043;-68
2022/09/11 07:59:12;;;;;;;7.15;5.85;;;19.10;99.90;;;;;;4993592;28;20194;-68
2022/09/11 08:01:38;;;;;;;9.00;5.57;;;19.20;99.90;;;;;;4989305;28;20066;-68
2022/09/11 08:04:05;;;;;;;9.38;5.70;;;19.20;99.90;;;;;;4985680;28;20034;-69
2022/09/11 08:06:33;;;;;;;12.10;4.97;;;19.30;99.90;;;;;;4988460;28;20050;-68
2022/09/11 08:09:02;;;;;;;10.13;5.15;;;19.40;99.90;;;;;;4978255;28;20097;-69
2022/09/11 08:11:30;;;;;;;6.50;5.03;;;19.60;99.90;;;;;;4976988;28;20727;-69
2022/09/11 08:13:56;;;;;;;;;;;19.70;99.90;;;;;;4980204;28;20057;-68
2022/09/11 08:16:24;;;;;;;5.32;3.55;;;19.70;99.90;;;;;;4974444;28;20016;-69
2022/09/11 08:18:50;;;;;;;;;;;19.60;99.90;;;;;;4991785;28;20098;-68
2022/09/11 08:21:17;;;;;;;9.07;4.50;;;19.70;99.90;;;;;;4977930;28;19968;-68
2022/09/11 08:23:44;;;;;;;7.03;4.43;;;19.70;99.90;;;;;;4986991;28;20069;-68
2022/09/11 08:26:11;;;;;;;5.80;2.70;;;19.90;99.90;;;;;;4986665;28;20046;-69
2022/09/11 08:28:38;;;;;;;7.07;2.70;;;19.90;99.90;;;;;;4991342;28;20080;-69
2022/09/11 08:31:05;;;;;;;6.75;2.75;;;20.00;99.90;;;;;;4978131;28;20499;-68
2022/09/11 08:33:34;;;;;;;6.30;2.93;;;20.00;99.90;;;;;;4989991;28;20042;-67
2022/09/11 08:36:04;;;;;;;5.65;2.90;;;19.80;99.90;;;;;;4983457;28;20089;-67
2022/09/11 08:38:29;;;;;;;9.73;3.45;;;19.70;99.90;;;;;;4987211;28;20054;-68
2022/09/11 08:40:57;;;;;;;6.45;3.40;;;19.70;99.90;;;;;;4990481;28;20039;-68
2022/09/11 08:43:31;;;;;;;6.00;3.22;;;19.70;99.90;;;;;;4990328;28;20042;-68
2022/09/11 08:46:04;;;;;;;5.68;2.80;;;19.70;99.90;;;;;;4990814;28;20050;-69
2022/09/11 08:48:48;;;;;;;5.50;2.80;;;19.70;99.90;;;;;;4990401;28;20061;-70
2022/09/11 08:51:16;;;;;;;5.75;3.03;;;19.90;99.90;;;;;;4992800;28;20046;-69
2022/09/11 08:53:44;;;;;;;7.50;2.92;;;20.10;99.90;;;;;;4992110;28;20042;-69
2022/09/11 08:56:21;;;;;;;;;;;20.40;99.90;;;;;;4987615;28;20050;-69
2022/09/11 08:59:08;;;;;;;5.32;2.50;;;20.70;99.90;;;;;;4989699;28;19948;-68
2022/09/11 09:02:02;;;;;;;7.10;2.88;;;21.00;99.90;;;;;;4989357;28;20039;-70
2022/09/11 09:04:40;;;;;;;6.80;2.60;;;21.40;99.90;;;;;;4972465;28;20440;-68
2022/09/11 09:07:19;;;;;;;7.93;2.60;;;21.40;99.90;;;;;;4990926;28;20038;-68
2022/09/11 09:10:26;;;;;;;5.05;1.75;;;21.60;99.90;;;;;;4975196;28;20054;-68
2022/09/11 09:13:29;;;;;;;5.55;2.20;;;21.50;99.90;;;;;;4974572;28;20096;-68
2022/09/11 09:16:13;;;;;;;3.35;1.83;;;21.60;99.90;;;;;;4985725;28;20051;-68
2022/09/11 09:18:49;;;;;;;5.93;2.20;;;21.70;99.90;;;;;;4980206;28;20077;-67
2022/09/11 09:21:38;;;;;;;6.18;1.77;;;21.80;99.90;;;;;;4984229;28;20093;-68
2022/09/11 09:24:18;;;;;;;3.92;1.80;;;21.90;99.90;;;;;;4979906;28;20074;-68
2022/09/11 09:26:51;;;;;;;5.40;1.98;;;22.20;99.90;;;;;;4985728;28;20046;-68
2022/09/11 09:29:29;;;;;;;4.38;1.77;;;22.50;99.90;;;;;;4952169;28;20491;-69
2022/09/11 09:32:05;;;;;;;3.88;1.58;;;22.80;99.90;;;;;;4963816;28;20070;-68
2022/09/11 09:34:36;;;;;;;4.78;1.80;;;23.10;99.90;;;;;;4974592;28;20186;-67
2022/09/11 09:37:14;;;;;;;5.90;1.92;;;23.40;99.90;;;;;;4973839;28;20050;-69
2022/09/11 09:39:39;;;;;;;4.88;1.60;;;23.60;99.90;;;;;;4979201;28;20046;-67
2022/09/11 09:42:15;;;;;;;3.45;1.52;;;23.50;99.90;;;;;;4987426;28;20038;-67
2022/09/11 09:45:16;;;;;;;7.75;1.90;;;23.40;99.90;;;;;;4985397;28;20038;-69
2022/09/11 09:47:46;;;;;;;4.07;1.80;;;23.40;99.90;;;;;;4991954;28;20034;-67
2022/09/11 09:50:20;;;;;;;7.22;2.22;;;23.30;99.90;;;;;;4972862;28;20053;-68
2022/09/11 09:52:48;;;;;;;3.85;1.70;;;23.20;99.90;;;;;;4970397;28;20053;-67
2022/09/11 09:55:17;;;;;;;4.63;1.73;;;22.90;99.90;;;;;;4987095;28;20042;-69
2022/09/11 09:57:43;;;;;;;3.03;1.35;;;22.70;99.90;;;;;;4956183;28;20395;-68
2022/09/11 10:00:08;;;;;;;5.30;2.47;;;22.40;99.30;;;;;;4981596;28;20038;-68
2022/09/11 10:02:41;;;;;;;7.32;2.45;;;22.10;99.90;;;;;;4984095;28;20049;-70
2022/09/11 10:05:15;;;;;;;6.78;2.20;;;21.80;99.90;;;;;;4986263;28;20996;-69
2022/09/11 10:07:53;;;;;;;6.40;1.98;;;21.40;99.90;;;;;;4989350;28;20152;-67
2022/09/11 10:10:31;;;;;;;6.23;2.10;;;21.00;99.90;;;;;;4981072;28;20116;-68
2022/09/11 10:13:04;;;;;;;4.22;2.25;;;20.80;99.90;;;;;;4985423;28;20892;-67
2022/09/11 10:15:37;;;;;;;4.93;2.10;;;20.60;99.90;;;;;;4989830;28;20041;-67
2022/09/11 10:18:21;;;;;;;6.05;2.30;;;20.50;99.90;;;;;;4984576;28;20035;-68
2022/09/11 10:20:47;;;;;;;3.83;1.98;;;20.30;99.90;;;;;;4971025;28;20462;-68
2022/09/11 10:23:24;;;;;;;8.70;2.17;;;20.30;99.90;;;;;;4994311;28;20126;-69
2022/09/11 10:25:50;;;;;;;3.97;2.03;;;20.20;99.90;;;;;;4990399;28;20401;-67
2022/09/11 10:28:38;;;;;;;5.68;2.22;;;20.20;99.90;;;;;;4970519;28;20130;-68
2022/09/11 10:31:04;;;;;;;8.50;2.60;;;20.00;99.90;;;;;;4978520;28;20054;-68
2022/09/11 10:33:32;;;;;;;5.07;2.50;;;20.00;99.90;;;;;;4989313;28;20039;-68
2022/09/11 10:36:00;;;;;;;6.88;2.58;;;20.00;99.90;;;;;;4977440;28;20082;-67
2022/09/11 10:38:28;;;;;;;;;;;20.00;99.90;;;;;;4978787;28;20051;-67
2022/09/11 10:41:20;;;;;;;4.53;2.30;;;20.00;99.90;;;;;;4968849;28;19921;-68
2022/09/11 10:44:01;;;;;;;4.22;2.28;;;19.90;99.90;;;;;;4980479;28;20096;-68
2022/09/11 10:46:38;;;;;;;4.00;2.47;;;20.00;99.90;;;;;;4992082;28;20749;-67
2022/09/11 10:49:04;;;;;;;6.05;2.30;;;20.00;99.90;;;;;;4992547;28;20038;-67
2022/09/11 10:51:36;;;;;;;4.70;2.63;;;20.10;99.90;;;;;;4994091;28;20568;-67
2022/09/11 10:54:32;;;;;;;5.95;2.20;;;20.50;99.90;;;;;;4984019;28;20049;-68
2022/09/11 10:57:22;;;;;;;4.80;2.22;;;20.80;99.90;;;;;;4983943;28;20046;-68
2022/09/11 11:00:08;;;;;;;4.28;2.03;;;20.80;99.90;;;;;;4992274;28;20054;-68
2022/09/11 11:02:38;;;;;;;5.80;2.33;;;21.00;99.90;;;;;;4992585;28;20049;-68
2022/09/11 11:05:17;;;;;;;4.20;1.92;;;21.20;99.90;;;;;;4987695;28;20049;-67
2022/09/11 11:08:05;;;;;;;4.97;2.10;;;21.40;99.90;;;;;;4988089;28;20093;-67
2022/09/11 11:10:50;;;;;;;4.75;2.58;;;21.80;99.90;;;;;;4990444;28;20065;-68
2022/09/11 11:13:30;;;;;;;6.78;2.30;;;22.50;99.90;;;;;;4979950;28;20054;-67
2022/09/11 11:16:17;;;;;;;5.38;2.88;;;23.30;99.90;;;;;;4960944;28;20488;-68
2022/09/11 11:18:55;;;;;;;4.75;2.28;;;23.20;99.90;;;;;;4990291;28;20039;-67
2022/09/11 11:22:00;;;;;;;5.15;2.15;;;23.00;99.90;;;;;;4991053;28;20141;-68
2022/09/11 11:24:54;;;;;;;4.45;2.22;;;22.90;99.90;;;;;;4937026;28;20129;-67
2022/09/11 11:27:32;;;;;;;3.97;1.80;;;22.80;99.90;;;;;;4971329;28;20137;-67
2022/09/11 11:30:18;;;;;;;4.95;1.90;;;22.70;99.90;;;;;;4990494;28;20034;-68
2022/09/11 11:33:17;;;;;;;4.75;2.15;;;22.50;99.90;;;;;;4989647;28;20050;-68
2022/09/11 11:36:20;;;;;;;5.15;2.00;;;22.30;99.90;;;;;;4988123;28;20077;-68
2022/09/11 11:38:59;;;;;;;5.18;1.85;;;22.10;99.90;;;;;;4989625;28;20041;-67
2022/09/11 11:41:45;;;;;;;;;;;21.80;99.90;;;;;;4991244;28;20069;-67
2022/09/11 11:44:15;;;;;;;4.28;2.10;;;21.80;99.90;;;;;;4990530;28;20012;-67
2022/09/11 11:46:51;;;;;;;5.93;2.35;;;21.70;99.90;;;;;;4993414;28;20186;-67
2022/09/11 11:49:41;;;;;;;4.43;2.15;;;21.80;99.90;;;;;;4990898;28;20042;-67
2022/09/11 11:52:49;;;;;;;7.82;3.20;;;21.70;99.90;;;;;;4950414;28;20057;-67
2022/09/11 11:55:20;;;;;;;7.60;2.42;;;21.50;99.90;;;;;;4957133;28;20585;-69
2022/09/11 11:57:53;;;;;;;5.70;2.30;;;21.40;99.90;;;;;;4989463;28;20438;-67
2022/09/11 12:00:19;;;;;;;4.85;2.15;;;21.30;99.90;;;;;;4988788;28;20057;-67
2022/09/11 12:02:51;;;;;;;5.55;2.17;;;21.20;99.90;;;;;;4989927;28;20036;-67
2022/09/11 12:05:23;;;;;;;7.15;2.20;;;21.20;99.90;;;;;;4989208;28;20136;-68
2022/09/11 12:07:50;;;;;;;3.38;2.00;;;21.10;99.90;;;;;;4987130;28;20050;-68
2022/09/11 12:10:50;;;;;;;5.07;2.00;;;21.10;99.90;;;;;;4990109;28;20046;-68
2022/09/11 12:13:19;;;;;;;4.10;2.17;;;21.10;99.90;;;;;;4965759;28;20050;-68
2022/09/11 12:16:03;;;;;;;3.30;1.95;;;21.10;99.90;;;;;;4988494;28;20050;-67
2022/09/11 12:18:29;;;;;;;3.42;1.70;;;21.40;99.90;;;;;;4989988;28;20048;-68
2022/09/11 12:21:22;;;;;;;5.22;1.88;;;22.40;99.90;;;;;;4988666;28;20120;-67
2022/09/11 12:23:48;;;;;;;5.72;1.70;;;23.50;99.90;;;;;;4991390;28;20046;-67
2022/09/11 12:26:20;;;;;;;4.22;2.00;;;24.40;99.90;;;;;;4989280;28;20093;-68
2022/09/11 12:28:47;;;;;;;6.05;1.80;;;24.80;99.90;;;;;;4988555;28;20050;-68
2022/09/11 12:31:17;;;;;;;5.50;2.07;;;24.80;99.50;;;;;;4960354;28;20043;-68
2022/09/11 12:33:43;;;;;;;8.98;2.15;;;24.50;98.60;;;;;;4988229;28;20042;-69
2022/09/11 12:36:15;;;;;;;3.60;1.98;;;24.10;97.40;;;;;;4986168;28;20130;-68
2022/09/11 12:38:46;;;;;;;4.13;1.70;;;24.00;98.40;;;;;;4989856;28;20116;-68
2022/09/11 12:41:36;;;;;;;6.47;1.80;;;24.20;98.60;;;;;;4974027;28;20050;-67
2022/09/11 12:44:03;;;;;;;4.07;1.67;;;24.70;97.10;;;;;;4987216;28;20046;-67
2022/09/11 12:46:29;;;;;;;3.80;1.27;;;25.00;95.50;;;;;;4987615;28;20038;-68
2022/09/11 12:49:07;;;;;;;3.63;1.38;;;25.30;95.20;;;;;;4990068;28;20054;-69
2022/09/11 12:51:42;;;;;;;4.43;1.90;;;25.50;93.80;;;;;;4987914;28;20042;-68
2022/09/11 12:54:21;;;;;;;7.32;1.70;;;25.50;93.50;;;;;;4983053;28;20049;-68
2022/09/11 12:57:14;;;;;;;5.50;2.53;;;25.10;94.40;;;;;;4960636;28;20189;-69
2022/09/11 12:59:45;;;;;;;5.05;2.70;;;24.70;95.50;;;;;;4958002;28;20046;-68
2022/09/11 13:02:25;;;;;;;5.53;3.33;;;24.20;96.60;;;;;;4986273;28;20108;-68
2022/09/11 13:04:52;;;;;;;8.65;3.17;;;23.80;97.20;;;;;;4969628;28;20515;-68